Time;durP1;ratioP1;P1;durP2;ratioP2;P2;SDS_P1;SDS_P2;PMS_P1;PMS_P2;Temp;Humidity;BMP_temperature;BMP_pressure;BME280_temperature;BME280_humidity;BME280_pressure;Samples;Min_cycle;Max_cycle;Signal;HPM_P1;HPM_P2
2023/06/15 00:00:08;;;;;;;;;21.33;19.33;;;;;26.32;31.99;101069.34;4950772;28;45448;-76
2023/06/15 00:02:34;;;;;;;;;19.67;18.67;;;;;26.23;32.58;101060.84;4935872;28;45436;-73
2023/06/15 00:05:00;;;;;;;;;23.00;20.00;;;;;26.28;32.18;101079.38;4937278;28;45435;-74
2023/06/15 00:07:25;;;;;;;;;22.33;18.33;;;;;26.26;32.49;101086.66;4938804;28;45711;-76
2023/06/15 00:09:51;;;;;;;;;23.67;22.67;;;;;26.34;32.63;101103.19;4939074;28;45509;-76
2023/06/15 00:12:17;;;;;;;;;22.00;20.33;;;;;26.19;33.08;101094.19;4936103;28;45458;-77
2023/06/15 00:14:42;;;;;;;;;25.00;24.00;;;;;26.08;32.85;101067.13;4935398;28;45556;-74
2023/06/15 00:17:11;;;;;;;;;26.67;24.33;;;;;26.06;33.49;101074.38;4940378;28;45407;-75
2023/06/15 00:19:37;;;;;;;;;25.33;23.00;;;;;25.85;33.51;101051.44;4938244;28;45472;-75
2023/06/15 00:22:03;;;;;;;;;27.67;24.67;;;;;25.89;33.62;101045.84;4935262;28;45456;-76
2023/06/15 00:24:28;;;;;;;;;31.67;27.00;;;;;26.18;33.57;101099.66;4938893;28;45367;-75
2023/06/15 00:26:54;;;;;;;;;29.00;26.00;;;;;26.04;33.92;101087.03;4936674;28;45467;-76
2023/06/15 00:29:19;;;;;;;;;26.33;26.33;;;;;26.14;34.15;101114.19;4935774;28;45425;-73
2023/06/15 00:31:46;;;;;;;;;28.67;26.67;;;;;25.98;33.95;101096.31;4939358;28;45415;-74
2023/06/15 00:34:11;;;;;;;;;26.33;23.33;;;;;26.08;34.06;101114.53;4935189;28;45998;-74
2023/06/15 00:36:41;;;;;;;;;26.33;25.67;;;;;25.83;34.53;101088.22;4937051;28;45560;-74
2023/06/15 00:39:07;;;;;;;;;20.00;19.33;;;;;25.98;34.46;101131.19;4938558;28;45455;-75
2023/06/15 00:41:43;;;;;;;;;26.00;23.33;;;;;26.06;34.33;101132.56;4939542;28;45405;-74
2023/06/15 00:44:09;;;;;;;;;27.00;24.33;;;;;26.00;33.92;101118.53;4934291;28;45515;-76
2023/06/15 00:46:36;;;;;;;;;32.67;30.00;;;;;26.09;34.25;101117.16;4933725;28;45477;-74
2023/06/15 00:49:03;;;;;;;;;43.00;33.33;;;;;26.04;34.20;101103.13;4935294;28;45372;-73
2023/06/15 00:51:29;;;;;;;;;40.33;35.33;;;;;26.11;34.14;101112.56;4935905;28;45440;-75
2023/06/15 00:53:55;;;;;;;;;36.67;32.33;;;;;26.27;33.80;101130.47;4935126;28;45867;-75
2023/06/15 00:56:21;;;;;;;;;37.67;32.67;;;;;26.14;34.18;101111.53;4938909;28;45583;-74
2023/06/15 00:58:48;;;;;;;;;32.67;28.00;;;;;26.01;34.01;101080.03;4939926;28;45464;-75
2023/06/15 01:01:14;;;;;;;;;41.67;30.00;;;;;26.31;33.86;101126.66;4940105;28;45304;-74
2023/06/15 01:03:44;;;;;;;;;34.33;30.00;;;;;26.28;33.98;101122.34;4939600;28;46064;-73
2023/06/15 01:06:13;;;;;;;;;33.00;30.33;;;;;26.20;34.67;101116.56;4954493;28;45402;-73
2023/06/15 01:08:47;;;;;;;;;29.33;26.33;;;;;26.23;35.09;101124.41;4939359;28;45295;-74
2023/06/15 01:11:14;;;;;;;;;36.67;30.33;;;;;26.19;34.73;101126.41;4939695;28;45534;-74
2023/06/15 01:13:42;;;;;;;;;30.67;28.00;;;;;26.16;35.42;101129.28;4938147;28;45571;-74
2023/06/15 01:16:14;;;;;;;;;30.67;26.67;;;;;25.97;35.63;101107.13;4937552;28;45480;-74
2023/06/15 01:18:46;;;;;;;;;29.67;27.67;;;;;26.07;34.88;101124.41;4936087;28;45519;-72
2023/06/15 01:21:13;;;;;;;;;30.67;27.33;;;;;26.04;35.39;101124.59;4937595;28;45447;-73
2023/06/15 01:24:18;;;;;;;;;27.33;27.00;;;;;25.91;35.48;101121.75;4934475;28;45589;-73
2023/06/15 01:26:46;;;;;;;;;29.00;25.33;;;;;25.87;35.24;101117.50;4933709;28;45403;-73
2023/06/15 01:29:16;;;;;;;;;31.00;25.67;;;;;25.78;34.88;101092.00;4933151;28;45444;-74
2023/06/15 01:31:43;;;;;;;;;32.00;28.00;;;;;25.97;35.34;101128.59;4934832;28;45473;-74
2023/06/15 01:34:09;;;;;;;;;26.67;23.67;;;;;25.91;35.21;101124.44;4933116;28;45855;-73
2023/06/15 01:36:37;;;;;;;;;25.00;24.33;;;;;25.97;35.21;101126.75;4934912;28;45719;-75
2023/06/15 01:39:05;;;;;;;;;25.67;23.00;;;;;25.98;34.67;101128.50;4953823;28;45546;-75
2023/06/15 01:41:33;;;;;;;;;26.67;24.33;;;;;25.69;35.51;101091.66;4940980;28;45525;-74
2023/06/15 01:43:59;;;;;;;;;25.33;23.67;;;;;25.83;35.63;101136.50;4938591;28;46095;-75
2023/06/15 01:46:26;;;;;;;;;28.00;24.33;;;;;25.65;36.43;101119.59;4938790;28;45476;-73
2023/06/15 01:48:55;;;;;;;;;26.67;24.33;;;;;25.57;35.28;101125.41;4942579;28;45345;-73
2023/06/15 01:51:26;;;;;;;;;28.00;23.67;;;;;25.48;35.26;101128.56;4942777;28;45546;-74
2023/06/15 01:53:55;;;;;;;;;21.67;21.67;;;;;25.53;34.58;101123.81;4939419;28;45375;-73
2023/06/15 01:56:24;;;;;;;;;18.67;18.00;;;;;25.46;34.45;101122.41;4953114;28;45681;-73
2023/06/15 01:58:50;;;;;;;;;22.67;21.00;;;;;25.30;34.66;101122.41;4941559;28;45513;-72
2023/06/15 02:01:16;;;;;;;;;19.33;19.33;;;;;25.24;35.16;101125.41;4942462;28;45305;-73
2023/06/15 02:03:41;;;;;;;;;26.33;18.67;;;;;25.20;34.58;101102.38;4940503;28;45926;-75
2023/06/15 02:06:08;;;;;;;;;24.33;20.33;;;;;25.13;35.43;101100.00;4937202;28;45550;-74
2023/06/15 02:08:33;;;;;;;;;18.67;18.00;;;;;25.32;34.51;101125.88;4936613;28;45411;-74
2023/06/15 02:11:00;;;;;;;;;20.67;18.33;;;;;24.88;34.79;101062.91;4938419;28;45624;-73
2023/06/15 02:13:25;;;;;;;;;18.00;18.00;;;;;25.20;35.31;101124.72;4941492;28;45438;-74
2023/06/15 02:15:54;;;;;;;;;18.00;18.00;;;;;25.13;35.14;101110.72;4942056;28;45223;-73
2023/06/15 02:18:20;;;;;;;;;19.00;19.00;;;;;25.23;35.50;101123.69;4942227;28;45584;-74
2023/06/15 02:20:46;;;;;;;;;17.00;17.00;;;;;25.21;35.00;101128.25;4940014;28;45298;-73
2023/06/15 02:23:12;;;;;;;;;19.33;16.67;;;;;25.22;35.42;101130.81;4937247;28;45558;-73
2023/06/15 02:25:39;;;;;;;;;17.00;16.67;;;;;25.18;35.31;101126.59;4937403;28;45665;-74
2023/06/15 02:28:05;;;;;;;;;16.00;16.00;;;;;25.02;34.94;101104.19;4938120;28;45983;-73
2023/06/15 02:30:31;;;;;;;;;16.33;14.67;;;;;25.21;35.26;101134.47;4940367;28;45342;-74
2023/06/15 02:33:00;;;;;;;;;18.67;17.00;;;;;25.23;35.26;101124.53;4937904;28;45928;-74
2023/06/15 02:35:26;;;;;;;;;22.33;19.67;;;;;25.32;35.44;101125.88;4937304;28;45377;-73
2023/06/15 02:37:52;;;;;;;;;21.67;20.33;;;;;25.14;35.79;101090.16;4940334;28;45450;-73
2023/06/15 02:40:18;;;;;;;;;22.33;18.00;;;;;25.09;35.57;101081.50;4938455;28;45724;-73
2023/06/15 02:42:43;;;;;;;;;23.00;20.67;;;;;25.37;35.46;101127.34;4937328;28;46729;-73
2023/06/15 02:45:09;;;;;;;;;20.00;19.67;;;;;24.97;36.01;101073.16;4937553;28;45433;-73
2023/06/15 02:47:37;;;;;;;;;17.33;14.67;;;;;25.14;36.32;101120.50;4937439;28;45432;-74
2023/06/15 02:50:05;;;;;;;;;20.67;20.67;;;;;25.14;36.19;101131.22;4939887;28;45286;-74
2023/06/15 02:52:31;;;;;;;;;23.33;21.33;;;;;25.14;35.82;101133.03;4938947;28;47190;-75
2023/06/15 02:54:58;;;;;;;;;27.33;23.67;;;;;24.90;36.23;101124.47;4936733;28;45338;-73
2023/06/15 02:57:24;;;;;;;;;25.00;22.00;;;;;24.71;37.21;101109.31;4937068;28;45928;-75
2023/06/15 02:59:50;;;;;;;;;23.67;20.33;;;;;24.94;36.96;101137.63;4938468;28;45361;-75
2023/06/15 03:02:16;;;;;;;;;27.33;19.67;;;;;24.62;36.17;101083.00;4939291;28;47029;-73
2023/06/15 03:04:44;;;;;;;;;20.00;20.00;;;;;24.88;35.80;101137.94;4937456;28;45432;-75
2023/06/15 03:07:17;;;;;;;;;20.00;18.33;;;;;24.84;35.75;101130.97;4937258;28;45510;-71
2023/06/15 03:09:47;;;;;;;;;17.33;16.00;;;;;24.69;36.31;101116.56;4936761;28;45669;-75
2023/06/15 03:12:12;;;;;;;;;22.33;18.00;;;;;24.79;36.10;101130.34;4937035;28;45502;-72
2023/06/15 03:14:38;;;;;;;;;21.00;17.67;;;;;24.72;35.54;101136.97;4937725;28;45431;-72
2023/06/15 03:17:09;;;;;;;;;18.67;16.67;;;;;24.61;35.40;101107.22;4955795;28;45464;-72
2023/06/15 03:19:36;;;;;;;;;20.33;17.00;;;;;24.70;35.19;101129.03;4941175;28;45354;-74
2023/06/15 03:22:03;;;;;;;;;20.00;16.33;;;;;24.74;35.03;101145.81;4935783;28;46049;-71
2023/06/15 03:24:30;;;;;;;;;14.67;13.00;;;;;24.73;35.38;101138.72;4934616;28;45514;-71
2023/06/15 03:27:01;;;;;;;;;21.00;16.33;;;;;24.69;35.67;101135.31;4935910;28;45523;-71
2023/06/15 03:29:29;;;;;;;;;17.33;16.00;;;;;24.76;35.39;101146.59;4936909;28;45583;-71
2023/06/15 03:31:55;;;;;;;;;16.67;16.00;;;;;24.71;35.59;101141.47;4951135;28;48137;-71
2023/06/15 03:34:21;;;;;;;;;16.33;15.00;;;;;24.59;35.73;101135.88;4935250;28;45508;-71
2023/06/15 03:36:47;;;;;;;;;19.00;17.00;;;;;24.67;35.31;101134.53;4936434;28;45559;-73
2023/06/15 03:39:13;;;;;;;;;18.00;17.33;;;;;24.69;35.46;101132.66;4937006;28;45306;-73
2023/06/15 03:41:39;;;;;;;;;17.33;16.33;;;;;24.54;35.23;101120.91;4953604;28;47249;-72
2023/06/15 03:44:05;;;;;;;;;18.33;16.67;;;;;24.58;35.55;101128.78;4935235;28;45330;-72
2023/06/15 03:46:31;;;;;;;;;18.67;15.00;;;;;24.61;36.30;101134.00;4934994;28;46034;-74
2023/06/15 03:48:56;;;;;;;;;19.67;17.67;;;;;24.59;35.90;101141.25;4936912;28;45389;-72
2023/06/15 03:51:22;;;;;;;;;24.00;20.67;;;;;24.46;35.57;101135.56;4934706;28;45575;-72
2023/06/15 03:53:48;;;;;;;;;18.00;15.33;;;;;24.49;35.54;101132.81;4934531;28;45465;-72
2023/06/15 03:56:13;;;;;;;;;20.33;17.33;;;;;24.58;34.82;101139.47;4936246;28;45422;-73
2023/06/15 03:58:39;;;;;;;;;17.33;14.67;;;;;24.37;34.96;101119.97;4938246;28;45317;-72
2023/06/15 04:01:05;;;;;;;;;16.33;16.00;;;;;24.40;35.71;101130.53;4940371;28;45475;-73
2023/06/15 04:03:36;;;;;;;;;16.67;14.33;;;;;24.44;35.17;101149.06;4940137;28;45649;-72
2023/06/15 04:06:04;;;;;;;;;15.33;13.33;;;;;24.38;35.16;101130.59;4938703;28;45610;-71
2023/06/15 04:08:33;;;;;;;;;14.33;12.67;;;;;24.54;35.50;101150.34;4936638;28;45753;-71
2023/06/15 04:10:59;;;;;;;;;14.67;13.33;;;;;24.57;35.20;101135.94;4937504;28;46051;-73
2023/06/15 04:13:25;;;;;;;;;15.33;15.33;;;;;24.56;35.84;101147.63;4940239;28;45215;-77
2023/06/15 04:15:51;;;;;;;;;18.00;17.00;;;;;24.67;35.66;101149.75;4937455;28;45488;-73
2023/06/15 04:18:17;;;;;;;;;18.00;18.00;;;;;24.68;36.34;101154.16;4936573;28;45468;-73
2023/06/15 04:20:43;;;;;;;;;24.00;19.00;;;;;24.43;36.42;101141.09;4935863;28;45436;-75
2023/06/15 04:23:10;;;;;;;;;18.67;18.00;;;;;24.48;36.40;101155.16;4934624;28;45806;-74
2023/06/15 04:25:37;;;;;;;;;20.67;17.67;;;;;24.57;37.24;101141.31;4936001;28;45374;-77
2023/06/15 04:28:05;;;;;;;;;19.67;17.33;;;;;24.73;36.10;101146.75;4936075;28;45554;-78
2023/06/15 04:30:32;;;;;;;;;22.33;19.67;;;;;24.94;36.26;101167.09;4938621;28;46558;-78
2023/06/15 04:32:59;;;;;;;;;18.33;17.67;;;;;24.96;36.05;101157.16;4938892;28;45367;-72
2023/06/15 04:35:31;;;;;;;;;23.00;19.00;;;;;24.89;36.50;101161.13;4935826;28;45523;-75
2023/06/15 04:37:58;;;;;;;;;17.67;17.33;;;;;24.97;36.40;101166.06;4935973;28;45380;-76
2023/06/15 04:40:26;;;;;;;;;19.33;17.00;;;;;25.00;36.25;101151.66;4937135;28;45813;-74
2023/06/15 04:42:57;;;;;;;;;24.33;22.33;;;;;25.12;36.41;101175.13;4954917;28;45392;-74
2023/06/15 04:45:23;;;;;;;;;19.67;17.67;;;;;25.17;36.21;101165.03;4940071;28;45428;-74
2023/06/15 04:47:49;;;;;;;;;20.00;20.00;;;;;25.21;35.91;101163.97;4940347;28;45305;-73
2023/06/15 04:50:15;;;;;;;;;20.00;18.67;;;;;25.33;35.37;101173.16;4938718;28;45584;-73
2023/06/15 04:52:41;;;;;;;;;22.67;19.67;;;;;25.45;35.63;101177.00;4935655;28;45423;-72
2023/06/15 04:55:07;;;;;;;;;23.67;19.33;;;;;25.48;35.12;101185.75;4950369;28;45239;-71
2023/06/15 04:57:33;;;;;;;;;20.00;17.33;;;;;25.54;35.59;101176.53;4953668;28;45304;-72
2023/06/15 05:00:00;;;;;;;;;19.33;19.33;;;;;25.43;35.52;101166.34;4954207;28;45407;-71
2023/06/15 05:02:26;;;;;;;;;21.33;18.00;;;;;25.53;36.02;101178.34;4950540;28;45478;-73
2023/06/15 05:04:51;;;;;;;;;21.00;18.33;;;;;25.63;35.03;101181.41;4934951;28;45467;-73
2023/06/15 05:07:17;;;;;;;;;17.67;17.33;;;;;25.67;35.46;101180.25;4937387;28;45389;-73
2023/06/15 05:09:42;;;;;;;;;19.00;17.00;;;;;25.79;35.18;101184.09;4938274;28;46785;-74
2023/06/15 05:12:09;;;;;;;;;18.00;16.00;;;;;25.79;34.70;101181.41;4936318;28;45548;-73
2023/06/15 05:14:34;;;;;;;;;16.67;16.00;;;;;25.80;34.88;101191.22;4935177;28;45508;-74
2023/06/15 05:17:03;;;;;;;;;18.33;17.33;;;;;25.68;34.89;101152.50;4941929;28;45421;-74
2023/06/15 05:19:30;;;;;;;;;20.33;19.67;;;;;25.94;34.94;101193.19;4942893;28;45626;-72
2023/06/15 05:22:00;;;;;;;;;21.33;19.67;;;;;25.95;34.36;101178.78;4940812;28;45480;-72
2023/06/15 05:24:26;;;;;;;;;21.00;16.00;;;;;26.01;34.02;101194.56;4926174;28;45523;-71
2023/06/15 05:26:59;;;;;;;;;22.67;19.00;;;;;26.05;35.39;101197.94;4935876;28;45763;-75
2023/06/15 05:29:25;;;;;;;;;24.33;20.00;;;;;26.01;34.94;101194.56;4935746;28;46038;-72
2023/06/15 05:31:50;;;;;;;;;19.00;16.00;;;;;25.85;34.73;101169.50;4943443;28;45497;-71
2023/06/15 05:34:17;;;;;;;;;17.00;17.00;;;;;26.06;34.39;101203.22;4952263;28;45622;-73
2023/06/15 05:36:43;;;;;;;;;17.33;17.33;;;;;25.96;34.88;101176.03;4935115;28;45368;-71
2023/06/15 05:39:09;;;;;;;;;20.00;17.67;;;;;26.17;34.59;101199.94;4934530;28;45361;-72
2023/06/15 05:41:38;;;;;;;;;21.00;19.33;;;;;26.16;35.32;101199.06;4934092;28;45855;-78
2023/06/15 05:44:04;;;;;;;;;19.00;19.00;;;;;26.15;35.47;101204.50;4934525;28;45551;-73
2023/06/15 05:46:30;;;;;;;;;19.33;19.00;;;;;26.09;35.46;101203.03;4934485;28;45499;-71
2023/06/15 05:48:55;;;;;;;;;19.00;17.33;;;;;25.96;36.09;101212.72;4935211;28;45938;-72
2023/06/15 05:51:21;;;;;;;;;21.33;19.00;;;;;25.91;35.77;101212.09;4935288;28;45447;-74
2023/06/15 05:53:47;;;;;;;;;19.33;18.00;;;;;25.83;35.71;101203.59;4932885;28;45421;-73
2023/06/15 05:56:12;;;;;;;;;20.00;18.33;;;;;26.05;35.66;101217.56;4934614;28;45633;-74
2023/06/15 05:58:39;;;;;;;;;17.67;17.67;;;;;26.06;34.90;101191.63;4938081;28;45443;-72
2023/06/15 06:01:06;;;;;;;;;25.33;22.00;;;;;26.19;34.76;101198.03;4938220;28;45536;-72
2023/06/15 06:03:31;;;;;;;;;19.00;18.00;;;;;26.39;34.46;101221.09;4936007;28;45440;-72
2023/06/15 06:05:57;;;;;;;;;19.00;17.67;;;;;26.42;34.49;101200.28;4934849;28;45427;-73
2023/06/15 06:08:23;;;;;;;;;19.00;17.33;;;;;26.37;33.83;101174.66;4931010;28;45839;-72
2023/06/15 06:10:49;;;;;;;;;19.67;17.33;;;;;26.47;34.08;101205.38;4934764;28;45401;-73
2023/06/15 06:13:15;;;;;;;;;16.67;14.33;;;;;26.40;33.97;101183.38;4938293;28;45632;-73
2023/06/15 06:15:41;;;;;;;;;19.00;17.67;;;;;26.55;33.69;101187.06;4935768;28;45489;-73
2023/06/15 06:18:07;;;;;;;;;16.67;16.33;;;;;26.49;33.63;101170.41;4937712;28;45594;-73
2023/06/15 06:20:33;;;;;;;;;13.00;13.00;;;;;26.67;33.51;101176.53;4933452;28;45457;-74
2023/06/15 06:22:58;;;;;;;;;17.00;15.67;;;;;26.96;33.46;101216.00;4933721;28;45309;-73
2023/06/15 06:25:24;;;;;;;;;14.33;11.33;;;;;26.97;33.07;101206.97;4934257;28;46671;-72
2023/06/15 06:27:50;;;;;;;;;13.67;13.33;;;;;27.06;33.22;101205.56;4932879;28;46359;-72
2023/06/15 06:30:15;;;;;;;;;17.67;14.00;;;;;27.16;33.26;101217.50;4934276;28;45611;-75
2023/06/15 06:32:41;;;;;;;;;15.00;14.33;;;;;27.26;32.96;101228.59;4952081;28;45481;-72
2023/06/15 06:35:12;;;;;;;;;15.67;14.00;;;;;27.29;32.83;101228.44;4936054;28;45452;-74
2023/06/15 06:37:55;;;;;;;;;22.00;18.00;;;;;27.30;32.94;101224.75;4934545;28;45384;-74
2023/06/15 06:40:25;;;;;;;;;17.33;16.33;;;;;27.37;33.09;101234.19;4933930;28;45701;-73
2023/06/15 06:42:51;;;;;;;;;18.00;16.67;;;;;27.39;33.00;101231.41;4934673;28;46820;-75
2023/06/15 06:45:16;;;;;;;;;18.00;15.33;;;;;27.40;32.64;101230.44;4934154;28;45816;-71
2023/06/15 06:47:42;;;;;;;;;18.00;17.00;;;;;27.54;32.60;101240.38;4931707;28;47367;-75
2023/06/15 06:50:11;;;;;;;;;18.33;17.00;;;;;27.57;32.34;101241.03;4933400;28;46057;-74
2023/06/15 06:52:37;;;;;;;;;18.00;14.67;;;;;27.48;32.27;101220.97;4932918;28;45491;-73
2023/06/15 06:55:03;;;;;;;;;17.33;16.33;;;;;27.64;31.95;101223.56;4936525;28;45561;-74
2023/06/15 06:57:28;;;;;;;;;18.00;16.00;;;;;27.55;31.72;101210.69;4944615;28;45467;-74
2023/06/15 06:59:54;;;;;;;;;15.67;15.33;;;;;27.70;32.03;101243.84;4940375;28;45386;-73
2023/06/15 07:02:20;;;;;;;;;16.67;15.67;;;;;27.46;31.83;101209.44;4942711;28;45380;-73
2023/06/15 07:04:46;;;;;;;;;17.00;15.33;;;;;27.63;31.99;101235.28;4942546;28;45742;-73
2023/06/15 07:07:11;;;;;;;;;15.67;15.00;;;;;27.74;31.80;101245.41;4940375;28;45441;-71
2023/06/15 07:09:40;;;;;;;;;19.00;17.00;;;;;27.74;32.26;101253.47;4940199;28;45593;-77
2023/06/15 07:12:07;;;;;;;;;14.00;14.00;;;;;27.80;32.22;101250.38;4946444;28;45436;-77
2023/06/15 07:14:33;;;;;;;;;17.33;16.33;;;;;27.49;32.29;101198.47;4945199;28;45315;-75
2023/06/15 07:16:59;;;;;;;;;21.67;19.00;;;;;27.88;32.19;101240.06;4942855;28;45441;-76
2023/06/15 07:19:24;;;;;;;;;18.33;17.33;;;;;28.01;31.87;101258.13;4942842;28;45488;-79
2023/06/15 07:21:51;;;;;;;;;17.00;13.67;;;;;28.00;31.42;101245.59;4943418;28;45522;-80
2023/06/15 07:24:17;;;;;;;;;18.00;17.33;;;;;27.73;32.09;101189.84;4956373;28;45616;-77
2023/06/15 07:26:43;;;;;;;;;17.00;17.00;;;;;28.17;31.87;101253.50;4940466;28;46194;-78
2023/06/15 07:29:08;;;;;;;;;17.00;17.00;;;;;28.31;32.81;101272.34;4941410;28;45423;-76
2023/06/15 07:31:34;;;;;;;;;20.00;18.00;;;;;28.24;31.84;101254.84;4941779;28;45686;-77
2023/06/15 07:34:01;;;;;;;;;22.33;20.67;;;;;28.32;31.76;101262.41;4939029;28;45784;-76
2023/06/15 07:36:27;;;;;;;;;21.00;16.67;;;;;28.24;31.71;101256.66;4939706;28;46630;-74
2023/06/15 07:38:53;;;;;;;;;19.00;18.33;;;;;27.77;32.04;101175.22;4954931;28;45467;-72
2023/06/15 07:41:20;;;;;;;;;15.00;14.67;;;;;28.10;32.73;101219.84;4942050;28;45216;-76
2023/06/15 07:43:47;;;;;;;;;18.33;17.33;;;;;28.10;31.79;101201.84;4941139;28;45366;-77
2023/06/15 07:46:12;;;;;;;;;20.00;17.00;;;;;28.54;31.24;101259.22;4941783;28;46357;-74
2023/06/15 07:48:38;;;;;;;;;15.00;13.67;;;;;28.47;30.93;101253.34;4940311;28;45401;-73
2023/06/15 07:51:03;;;;;;;;;15.33;14.00;;;;;28.63;31.40;101258.63;4944494;28;45457;-75
2023/06/15 07:53:29;;;;;;;;;17.00;14.00;;;;;28.68;30.42;101264.56;4943363;28;45450;-70
2023/06/15 07:55:55;;;;;;;;;19.33;16.00;;;;;28.65;30.16;101262.06;4935539;28;46592;-73
2023/06/15 07:58:20;;;;;;;;;16.67;15.00;;;;;28.68;30.33;101263.72;4935925;28;45679;-70
2023/06/15 08:00:46;;;;;;;;;22.67;20.67;;;;;28.60;30.60;101263.34;4935437;28;45539;-74
2023/06/15 08:03:11;;;;;;;;;55.33;44.33;;;;;28.62;30.59;101259.59;4935925;28;45527;-71
2023/06/15 08:05:37;;;;;;;;;30.00;28.33;;;;;28.58;31.05;101249.13;4939403;28;46147;-73
2023/06/15 08:08:03;;;;;;;;;24.33;20.33;;;;;28.51;30.34;101240.56;4935826;28;45334;-72
2023/06/15 08:10:29;;;;;;;;;21.33;16.33;;;;;28.47;30.07;101264.13;4935997;28;45427;-72
2023/06/15 08:12:55;;;;;;;;;16.67;15.67;;;;;28.47;30.37;101274.06;4936617;28;45421;-73
2023/06/15 08:15:21;;;;;;;;;15.00;15.00;;;;;28.51;30.20;101279.16;4938207;28;45722;-71
2023/06/15 08:17:47;;;;;;;;;17.33;16.33;;;;;28.56;30.09;101278.00;4938644;28;45723;-73
2023/06/15 08:20:13;;;;;;;;;16.00;13.00;;;;;28.54;30.29;101272.69;4940345;28;45279;-70
2023/06/15 08:22:38;;;;;;;;;16.67;15.33;;;;;28.54;30.35;101264.59;4940586;28;45365;-72
2023/06/15 08:25:05;;;;;;;;;13.33;11.67;;;;;28.65;29.26;101283.63;4938482;28;45486;-73
2023/06/15 08:27:31;;;;;;;;;14.00;12.50;;;;;28.55;29.90;101250.19;4935692;28;45827;-74
2023/06/15 08:29:57;;;;;;;;;13.25;11.75;;;;;28.64;29.75;101251.38;4938993;28;45401;-73
2023/06/15 08:32:23;;;;;;;;;18.50;15.00;;;;;28.55;29.30;101239.41;4932075;28;45964;-74
2023/06/15 08:34:49;;;;;;;;;18.00;14.50;;;;;28.79;28.83;101281.88;4933947;28;46129;-78
2023/06/15 08:37:14;;;;;;;;;10.33;10.00;;;;;28.61;28.73;101263.25;4946360;28;45499;-70
2023/06/15 08:39:40;;;;;;;;;18.67;17.33;;;;;28.59;29.37;101278.63;4931358;28;45532;-73
2023/06/15 08:42:09;;;;;;;;;15.25;13.50;;;;;28.51;29.73;101264.81;4931103;28;45360;-71
2023/06/15 08:44:35;;;;;;;;;16.00;13.25;;;;;28.62;29.52;101283.84;4945266;28;46056;-73
2023/06/15 08:47:03;;;;;;;;;15.00;13.00;;;;;28.65;28.84;101277.41;4931109;28;45575;-70
2023/06/15 08:49:32;;;;;;;;;14.00;13.33;;;;;28.51;28.40;101275.59;4931111;28;45470;-73
2023/06/15 08:51:59;;;;;;;;;14.75;13.25;;;;;28.17;28.97;101244.56;4922937;28;45608;-74
2023/06/15 08:54:27;;;;;;;;;16.33;12.00;;;;;28.20;28.78;101269.44;4922600;28;48173;-73
2023/06/15 08:56:54;;;;;;;;;13.33;11.00;;;;;28.07;28.89;101261.28;4926862;28;45490;-75
2023/06/15 08:59:21;;;;;;;;;12.33;11.67;;;;;28.09;29.36;101267.44;4928507;28;45579;-74
2023/06/15 09:01:47;;;;;;;;;15.67;15.00;;;;;28.07;29.75;101271.19;4928045;28;45573;-73
2023/06/15 09:04:16;;;;;;;;;15.33;11.67;;;;;28.07;29.43;101268.47;4929060;28;45671;-73
2023/06/15 09:06:42;;;;;;;;;17.67;15.67;;;;;28.08;29.36;101265.72;4926344;28;45857;-73
2023/06/15 09:09:09;;;;;;;;;13.67;13.67;;;;;28.21;29.84;101271.16;4928532;28;45559;-75
2023/06/15 09:11:44;;;;;;;;;15.00;15.00;;;;;28.32;29.42;101278.56;4943055;28;45620;-75
2023/06/15 09:14:10;;;;;;;;;12.00;11.33;;;;;28.34;29.27;101271.25;4942567;28;47025;-75
2023/06/15 09:16:37;;;;;;;;;14.00;12.67;;;;;28.24;29.33;101275.53;4928105;28;45559;-74
2023/06/15 09:19:11;;;;;;;;;13.75;13.25;;;;;28.26;29.98;101269.06;4942838;28;45812;-73
2023/06/15 09:21:40;;;;;;;;;10.25;10.25;;;;;28.47;29.50;101271.34;4926018;28;46503;-74
2023/06/15 09:24:07;;;;;;;;;14.67;12.67;;;;;28.60;29.63;101277.69;4928764;28;45561;-73
2023/06/15 09:26:33;;;;;;;;;14.33;13.33;;;;;28.70;29.28;101278.81;4943436;28;45747;-74
2023/06/15 09:28:58;;;;;;;;;13.33;13.00;;;;;28.74;29.14;101266.88;4929248;28;46294;-73
2023/06/15 09:31:31;;;;;;;;;14.33;13.00;;;;;28.85;29.20;101273.38;4928490;28;45673;-75
2023/06/15 09:34:10;;;;;;;;;20.33;17.67;;;;;28.74;29.63;101274.09;4927543;28;45406;-70
2023/06/15 09:36:50;;;;;;;;;14.00;14.00;;;;;28.71;29.68;101268.88;4926874;28;45462;-75
2023/06/15 09:39:22;;;;;;;;;15.00;15.00;;;;;28.80;28.96;101272.81;4927885;28;45965;-73
2023/06/15 09:41:58;;;;;;;;;15.00;15.00;;;;;28.86;28.35;101284.06;4940167;28;45616;-76
2023/06/15 09:44:25;;;;;;;;;13.67;13.00;;;;;28.91;28.67;101275.66;4926366;28;46621;-74
2023/06/15 09:46:53;;;;;;;;;13.67;12.33;;;;;28.68;28.92;101224.13;4926761;28;45623;-73
2023/06/15 09:49:22;;;;;;;;;13.75;12.00;;;;;29.08;28.75;101269.19;4926502;28;45589;-75
2023/06/15 09:51:50;;;;;;;;;14.67;14.67;;;;;29.13;28.58;101264.31;4926327;28;45432;-75
2023/06/15 09:54:18;;;;;;;;;16.00;12.33;;;;;29.24;28.75;101263.63;4927078;28;45614;-75
2023/06/15 09:56:50;;;;;;;;;16.33;15.00;;;;;29.32;28.60;101259.41;4934904;28;45326;-75
2023/06/15 09:59:16;;;;;;;;;17.67;16.00;;;;;29.33;28.67;101254.91;4938826;28;45607;-74
2023/06/15 10:01:45;;;;;;;;;18.00;15.33;;;;;29.42;28.14;101266.88;4921604;28;45812;-75
2023/06/15 10:04:13;;;;;;;;;17.00;15.67;;;;;29.31;28.32;101246.03;4932115;28;46478;-75
2023/06/15 10:06:41;;;;;;;;;15.33;15.33;;;;;29.43;28.21;101260.50;4930399;28;46645;-76
2023/06/15 10:09:09;;;;;;;;;16.67;16.00;;;;;29.48;27.58;101255.66;4929724;28;45723;-72
2023/06/15 10:11:43;;;;;;;;;16.67;16.00;;;;;29.56;27.74;101264.06;4929729;28;45536;-73
2023/06/15 10:14:21;;;;;;;;;16.67;16.33;;;;;29.58;27.65;101260.28;4931014;28;46481;-73
2023/06/15 10:16:53;;;;;;;;;17.67;16.00;;;;;29.60;27.84;101271.00;4929097;28;45991;-73
2023/06/15 10:19:21;;;;;;;;;16.50;15.00;;;;;29.57;27.75;101263.97;4944630;28;45813;-73
2023/06/15 10:21:48;;;;;;;;;13.75;13.75;;;;;29.37;27.54;101232.09;4924307;28;46058;-72
2023/06/15 10:24:17;;;;;;;;;13.25;12.50;;;;;29.51;27.46;101267.09;4925559;28;46074;-73
2023/06/15 10:26:43;;;;;;;;;16.33;15.00;;;;;29.52;26.88;101260.75;4929487;28;45856;-73
2023/06/15 10:29:34;;;;;;;;;14.33;12.67;;;;;29.47;26.69;101251.22;4929314;28;45937;-73
2023/06/15 10:32:16;;;;;;;;;13.50;13.50;;;;;29.54;27.17;101253.41;4915521;28;45911;-73
2023/06/15 10:35:03;;;;;;;;;17.67;16.33;;;;;29.69;26.58;101256.88;4919769;28;46114;-73
2023/06/15 10:37:40;;;;;;;;;16.00;16.00;;;;;29.76;26.49;101258.19;4920916;28;45953;-71
2023/06/15 10:40:30;;;;;;;;;18.00;15.25;;;;;29.84;26.31;101246.84;4928600;28;45656;-72
2023/06/15 10:43:01;;;;;;;;;17.00;16.00;;;;;29.79;26.41;101230.09;4932117;28;45589;-72
2023/06/15 10:45:32;;;;;;;;;17.00;16.00;;;;;29.89;26.37;101233.84;4920909;28;47129;-72
2023/06/15 10:47:59;;;;;;;;;18.00;16.75;;;;;30.10;26.54;101247.66;4944336;28;46154;-72
2023/06/15 10:50:26;;;;;;;;;18.25;16.50;;;;;30.18;26.81;101263.31;4934435;28;45515;-75
2023/06/15 10:52:53;;;;;;;;;21.00;18.67;;;;;30.13;26.11;101250.13;4936491;28;45948;-72
2023/06/15 10:55:26;;;;;;;;;18.75;18.00;;;;;30.25;26.25;101252.91;4951693;28;47330;-72
2023/06/15 10:58:14;;;;;;;;;15.50;15.50;;;;;30.25;26.11;101261.88;4940485;28;45794;-72
2023/06/15 11:01:10;;;;;;;;;15.00;14.50;;;;;30.33;26.30;101264.09;4940856;28;45428;-74
2023/06/15 11:03:41;;;;;;;;;16.50;14.25;;;;;30.37;26.25;101246.66;4929876;28;45483;-74
2023/06/15 11:06:13;;;;;;;;;18.25;16.00;;;;;30.50;26.01;101257.44;4933151;28;46300;-73
2023/06/15 11:08:52;;;;;;;;;15.25;14.75;;;;;30.53;26.12;101257.19;4936230;28;45506;-75
2023/06/15 11:11:35;;;;;;;;;20.75;19.25;;;;;30.59;25.70;101246.81;4934903;28;45358;-72